LFMO

Orange-Caritat (BA 115) Air Base Airport

Orange/Caritat, France
TAF LFMO 160800Z 1609/1709 VRB02KT 4900 -RA BKN020 TEMPO 1609/1622 3000 RA BKN005 PROB40 TEMPO 1618/1621 2000 SHRA BKN005 BKN030TCU BECMG 1622/1624 33012KT 6000 NSW SCT002 BECMG 1707/1709 34015G25KT
Issued Valid From Valid To
Dec-16 @ 08:00 UTC
(2 hours ago)
Dec-16 @ 09:00 UTC
(an hour ago)
Dec-17 @ 09:00 UTC
(in 23 hours)
Dec-16 @ 09:00 to Dec-16 @ 22:00
TAF LFMO 160800Z 1609/1709 VRB02KT 4900 -RA BKN020
Wind Visibility Clouds Conditions
Variable at 2 knots 4,892 meters
  • Broken at 2,000' AGL
  • Light Rain
Temporary Dec-16 @ 09:00 to Dec-16 @ 22:00
TEMPO 1609/1622 3000 RA BKN005
Visibility Clouds Conditions
2,993 meters
  • Broken at 500' AGL
  • Rain
Temporary  (Probability 40%) Dec-16 @ 18:00 to Dec-16 @ 21:00
PROB40 TEMPO 1618/1621 2000 SHRA BKN005 BKN030TCU
Visibility Clouds Conditions
1,996 meters
  • Broken at 500' AGL
  • Broken at 3,000' AGL
  • Rain
Becoming Dec-16 @ 22:00 to Dec-17 @ 07:00
BECMG 1622/1624 33012KT 6000 NSW SCT002
Wind Visibility Clouds Conditions
330° at 12 knots 6,003 meters
  • Scattered at 200' AGL
Becoming Dec-17 @ 07:00 to Dec-17 @ 09:00
BECMG 1707/1709 34015G25KT
Wind Visibility Clouds Conditions
340° at 15 knots
 Gusting to 25 knots
6,003 meters
  • Scattered at 200' AGL
TAF LFMO 160800Z 1609/1709 VRB02KT 4900 -RA BKN020 TEMPO 1609/1622 3000 RA BKN005 PROB40 TEMPO 1618/1621 2000 SHRA BKN005 BKN030TCU BECMG 1622/1624 33012KT 6000 NSW SCT002 BECMG 1707/1709 34015G25KT
Issued Dec-16 @ 08:00 UTC
(2 hours ago)
Valid From Dec-16 @ 09:00 UTC
(an hour ago)
Valid To Dec-17 @ 09:00 UTC
(in 23 hours)
Dec-16 @ 09:00 - Dec-16 @ 22:00
Wind Visibility
Variable at 2 knots 4,892 meters
Clouds
  • Broken at 2,000' AGL
Conditions
  • Light Rain
Temporary Dec-16 @ 09:00 - Dec-16 @ 22:00
Clouds
  • Broken at 500' AGL
Conditions
  • Rain
Probability 40% Temporary Dec-16 @ 18:00 - Dec-16 @ 21:00
Clouds
  • Broken at 500' AGL
  • Broken at 3,000' AGL
Conditions
  • Rain
Becoming Dec-16 @ 22:00 - Dec-17 @ 07:00
Wind Visibility
330° at 12 knots 6,003 meters
Clouds
  • Scattered at 200' AGL
Conditions
Becoming Dec-17 @ 07:00 - Dec-17 @ 09:00
Wind Visibility
340° at 15 knots
 Gusting to 25 knots
6,003 meters
Clouds
  • Scattered at 200' AGL
Conditions